Time;durP1;ratioP1;P1;durP2;ratioP2;P2;SDS_P1;SDS_P2;PMS_P1;PMS_P2;Temp;Humidity;BMP_temperature;BMP_pressure;BME280_temperature;BME280_humidity;BME280_pressure;Samples;Min_cycle;Max_cycle;Signal;HPM_P1;HPM_P2
2021/07/16 00:01:31;;;;;;;26.17;8.10;;;16.80;98.60;;;;;;5063455;28;20051;-82
2021/07/16 00:03:57;;;;;;;23.52;7.20;;;16.80;98.80;;;;;;5086393;28;20082;-82
2021/07/16 00:06:22;;;;;;;24.35;8.13;;;16.80;98.70;;;;;;5067672;28;20040;-82
2021/07/16 00:08:48;;;;;;;25.63;8.07;;;16.80;98.70;;;;;;5052845;28;20032;-82
2021/07/16 00:11:14;;;;;;;32.50;7.75;;;16.70;98.70;;;;;;5070342;28;20093;-83
2021/07/16 00:13:40;;;;;;;23.48;7.65;;;16.70;98.60;;;;;;5081899;28;20119;-82
2021/07/16 00:16:06;;;;;;;21.15;6.60;;;16.70;98.50;;;;;;5052852;28;20106;-82
2021/07/16 00:18:33;;;;;;;30.27;8.15;;;16.70;98.50;;;;;;5070522;28;20064;-82
2021/07/16 00:21:01;;;;;;;22.00;7.60;;;16.70;98.90;;;;;;5052701;28;20062;-82
2021/07/16 00:23:27;;;;;;;25.75;7.35;;;16.70;98.70;;;;;;5070992;28;20036;-81
2021/07/16 00:25:54;;;;;;;29.45;8.73;;;16.70;98.70;;;;;;5068802;28;20035;-82
2021/07/16 00:28:20;;;;;;;27.88;8.02;;;16.70;98.70;;;;;;5068827;28;20086;-81
2021/07/16 00:30:47;;;;;;;31.00;7.55;;;16.60;98.70;;;;;;5084722;28;20482;-81
2021/07/16 00:33:14;;;;;;;29.70;7.18;;;16.60;98.70;;;;;;5080663;28;20028;-84
2021/07/16 00:35:39;;;;;;;30.55;7.78;;;16.60;98.60;;;;;;5063721;28;20047;-82
2021/07/16 00:38:05;;;;;;;31.05;8.02;;;16.60;98.60;;;;;;5048517;28;20454;-82
2021/07/16 00:40:32;;;;;;;25.90;7.85;;;16.60;98.60;;;;;;5064781;28;20044;-81
2021/07/16 00:42:58;;;;;;;36.35;7.88;;;16.60;98.50;;;;;;5066072;28;20042;-81
2021/07/16 00:45:24;;;;;;;26.83;7.30;;;16.60;98.40;;;;;;5087962;28;20058;-80
2021/07/16 00:47:50;;;;;;;21.17;7.15;;;16.60;98.40;;;;;;5069561;28;20054;-82
2021/07/16 00:50:26;;;;;;;30.90;7.70;;;16.60;98.30;;;;;;5068262;28;20039;-81
2021/07/16 00:52:54;;;;;;;29.38;7.82;;;16.50;98.30;;;;;;5077056;28;20047;-82
2021/07/16 00:55:21;;;;;;;25.13;7.07;;;16.50;98.40;;;;;;5079704;28;20492;-82
2021/07/16 00:57:47;;;;;;;25.90;7.68;;;16.50;98.40;;;;;;5066928;28;20490;-82
2021/07/16 01:00:14;;;;;;;28.67;7.63;;;16.50;98.40;;;;;;5086240;28;20032;-82
2021/07/16 01:02:40;;;;;;;26.25;7.18;;;16.50;98.30;;;;;;5080551;28;20050;-83
2021/07/16 01:05:08;;;;;;;33.75;8.05;;;16.50;98.30;;;;;;5062205;28;20043;-82
2021/07/16 01:07:34;;;;;;;24.23;7.47;;;16.50;98.30;;;;;;5075591;28;20032;-82
2021/07/16 01:10:01;;;;;;;28.65;8.05;;;16.50;98.20;;;;;;5066579;28;20418;-83
2021/07/16 01:12:29;;;;;;;26.98;7.82;;;16.50;98.20;;;;;;5079583;28;20056;-81
2021/07/16 01:14:56;;;;;;;29.67;7.18;;;16.50;98.40;;;;;;5075371;28;20032;-82
2021/07/16 01:17:22;;;;;;;29.40;8.25;;;16.50;98.40;;;;;;5079924;28;20411;-81
2021/07/16 01:20:00;;;;;;;32.47;8.10;;;16.40;98.40;;;;;;5066542;28;20060;-82
2021/07/16 01:22:29;;;;;;;36.38;8.13;;;16.40;98.40;;;;;;5067463;28;20044;-82
2021/07/16 01:25:00;;;;;;;30.63;7.78;;;16.40;98.40;;;;;;5084670;28;20081;-82
2021/07/16 01:27:28;;;;;;;25.80;7.88;;;16.40;98.50;;;;;;5084307;28;20043;-82
2021/07/16 01:29:54;;;;;;;23.63;6.72;;;16.40;98.70;;;;;;5064127;28;20071;-81
2021/07/16 01:32:20;;;;;;;23.90;7.25;;;16.40;98.60;;;;;;5082811;28;20037;-81
2021/07/16 01:34:47;;;;;;;27.90;7.40;;;16.40;98.50;;;;;;5083111;28;20118;-82
2021/07/16 01:37:14;;;;;;;24.50;7.05;;;16.40;98.50;;;;;;5064576;28;20031;-82
2021/07/16 01:39:41;;;;;;;31.48;7.15;;;16.40;98.40;;;;;;5078268;28;20043;-81
2021/07/16 01:42:10;;;;;;;33.90;8.15;;;16.40;98.40;;;;;;5096051;28;20076;-83
2021/07/16 01:44:38;;;;;;;30.55;7.13;;;16.40;98.60;;;;;;5106725;28;20055;-82
2021/07/16 01:47:04;;;;;;;31.10;6.95;;;16.40;98.60;;;;;;5065503;28;20048;-82
2021/07/16 01:49:30;;;;;;;32.22;7.45;;;16.30;98.60;;;;;;5083898;28;20422;-81
2021/07/16 01:51:57;;;;;;;34.67;7.43;;;16.30;98.60;;;;;;5079907;28;20040;-81
2021/07/16 01:54:22;;;;;;;24.45;6.45;;;16.30;98.50;;;;;;5083559;28;20032;-82
2021/07/16 01:56:49;;;;;;;23.92;6.55;;;16.30;98.50;;;;;;5082469;28;20112;-82
2021/07/16 01:59:14;;;;;;;29.38;7.25;;;16.30;98.40;;;;;;5077593;28;20040;-82
2021/07/16 02:01:41;;;;;;;22.42;6.35;;;16.30;98.40;;;;;;5083257;28;20506;-82
2021/07/16 02:04:06;;;;;;;34.05;6.53;;;16.30;98.30;;;;;;5085647;28;20065;-81
2021/07/16 02:06:33;;;;;;;32.42;6.47;;;16.20;98.20;;;;;;5064584;28;20127;-82
2021/07/16 02:08:59;;;;;;;26.15;6.32;;;16.20;98.20;;;;;;5067315;28;20078;-81
2021/07/16 02:11:27;;;;;;;22.23;5.78;;;16.20;98.10;;;;;;5080425;28;20051;-82
2021/07/16 02:13:53;;;;;;;28.92;6.55;;;16.20;98.00;;;;;;5067230;28;20509;-82
2021/07/16 02:16:19;;;;;;;28.10;6.63;;;16.10;98.00;;;;;;5080748;28;20036;-82
2021/07/16 02:18:50;;;;;;;25.15;5.50;;;16.10;98.00;;;;;;5079936;28;20710;-81
2021/07/16 02:21:16;;;;;;;30.88;6.35;;;16.10;98.00;;;;;;5083334;28;20762;-81
2021/07/16 02:23:42;;;;;;;23.05;5.95;;;16.10;98.10;;;;;;5073620;28;20666;-82
2021/07/16 02:26:09;;;;;;;31.77;6.18;;;16.00;98.10;;;;;;5083809;28;20032;-81
2021/07/16 02:28:35;;;;;;;24.00;6.57;;;16.10;98.20;;;;;;5083355;28;20101;-81
2021/07/16 02:31:03;;;;;;;26.02;7.07;;;16.00;98.20;;;;;;5089872;28;20726;-83
2021/07/16 02:33:28;;;;;;;27.10;6.40;;;16.00;98.30;;;;;;5091115;28;20033;-81
2021/07/16 02:35:54;;;;;;;30.20;6.43;;;16.00;98.30;;;;;;5064431;28;20032;-82
2021/07/16 02:38:22;;;;;;;32.53;7.18;;;16.00;98.30;;;;;;5079391;28;20541;-82
2021/07/16 02:40:48;;;;;;;27.95;6.75;;;16.00;98.30;;;;;;5083266;28;20039;-82
2021/07/16 02:43:15;;;;;;;31.48;6.53;;;15.90;98.30;;;;;;5081535;28;20036;-81
2021/07/16 02:45:43;;;;;;;29.17;6.32;;;15.90;98.30;;;;;;5068382;28;20035;-81
2021/07/16 02:48:09;;;;;;;25.70;6.30;;;15.90;98.30;;;;;;5080233;28;20691;-81
2021/07/16 02:50:38;;;;;;;29.92;6.40;;;15.90;98.30;;;;;;5080749;28;20398;-82
2021/07/16 02:53:05;;;;;;;28.50;6.63;;;15.90;98.30;;;;;;5084727;28;20047;-81
2021/07/16 02:55:31;;;;;;;25.58;6.00;;;15.90;98.30;;;;;;5083128;28;20036;-82
2021/07/16 02:57:57;;;;;;;28.17;6.30;;;15.90;98.40;;;;;;5066096;28;20544;-82
2021/07/16 03:00:25;;;;;;;25.33;5.97;;;15.80;98.40;;;;;;5050558;28;20553;-82
2021/07/16 03:02:51;;;;;;;30.65;6.57;;;15.80;98.40;;;;;;5063610;28;20156;-81
2021/07/16 03:05:20;;;;;;;23.20;6.00;;;15.80;98.40;;;;;;5080639;28;20086;-81
2021/07/16 03:07:47;;;;;;;29.58;6.13;;;15.80;98.50;;;;;;5074658;28;20082;-82
2021/07/16 03:10:23;;;;;;;34.28;7.05;;;15.70;98.50;;;;;;5079124;28;20134;-82
2021/07/16 03:12:51;;;;;;;31.05;6.10;;;15.80;98.50;;;;;;5083719;28;20020;-82
2021/07/16 03:15:20;;;;;;;27.92;6.20;;;15.80;98.50;;;;;;5081566;28;20098;-81
2021/07/16 03:17:47;;;;;;;37.03;7.72;;;15.70;98.50;;;;;;5081498;28;20056;-82
2021/07/16 03:20:16;;;;;;;31.27;6.60;;;15.70;98.50;;;;;;5064557;28;20098;-81
2021/07/16 03:22:43;;;;;;;34.50;6.50;;;15.70;98.50;;;;;;5082307;28;20040;-82
2021/07/16 03:25:11;;;;;;;28.75;6.00;;;15.70;98.60;;;;;;5084051;28;20531;-81
2021/07/16 03:27:38;;;;;;;27.75;6.72;;;15.70;98.70;;;;;;5081222;28;20072;-81
2021/07/16 03:30:07;;;;;;;30.98;6.97;;;15.70;98.60;;;;;;5079053;28;20039;-81
2021/07/16 03:32:34;;;;;;;25.17;5.82;;;15.70;98.60;;;;;;5082985;28;20154;-80
2021/07/16 03:35:00;;;;;;;32.22;6.55;;;15.70;98.70;;;;;;5083240;28;20040;-81
2021/07/16 03:37:26;;;;;;;28.45;6.65;;;15.70;98.70;;;;;;5065081;28;20127;-81
2021/07/16 03:39:52;;;;;;;37.50;7.28;;;15.70;98.70;;;;;;5064351;28;21046;-81
2021/07/16 03:42:18;;;;;;;28.95;6.43;;;15.70;98.80;;;;;;5063916;28;20028;-81
2021/07/16 03:44:45;;;;;;;24.17;6.43;;;15.70;98.80;;;;;;5082353;28;20048;-82
2021/07/16 03:47:12;;;;;;;24.50;6.50;;;15.70;98.90;;;;;;5066155;28;20028;-82
2021/07/16 03:49:39;;;;;;;22.38;5.85;;;15.70;98.80;;;;;;5082272;28;20036;-82
2021/07/16 03:52:05;;;;;;;34.75;6.75;;;15.70;98.90;;;;;;5076247;28;20032;-81
2021/07/16 03:54:31;;;;;;;23.98;6.72;;;15.70;98.80;;;;;;5065348;28;20042;-81
2021/07/16 03:56:56;;;;;;;34.75;6.50;;;15.70;98.90;;;;;;5080521;28;20036;-81
2021/07/16 03:59:22;;;;;;;27.10;6.40;;;15.70;99.00;;;;;;5079106;28;20036;-81
2021/07/16 04:01:49;;;;;;;27.02;6.18;;;15.70;98.90;;;;;;5079795;28;20036;-81
2021/07/16 04:04:15;;;;;;;23.45;5.95;;;15.70;99.00;;;;;;5081288;28;20127;-81
2021/07/16 04:06:42;;;;;;;31.35;6.50;;;15.80;99.10;;;;;;5080073;28;20040;-81
2021/07/16 04:09:26;;;;;;;28.75;5.90;;;15.70;99.00;;;;;;5062304;28;20045;-81
2021/07/16 04:12:12;;;;;;;23.67;6.40;;;15.70;99.00;;;;;;5083277;28;20032;-81
2021/07/16 04:14:49;;;;;;;27.38;6.20;;;15.70;99.00;;;;;;5085440;28;20032;-81
2021/07/16 04:17:18;;;;;;;31.92;7.07;;;15.70;99.00;;;;;;5084582;28;20502;-81
2021/07/16 04:19:45;;;;;;;33.25;7.47;;;15.80;99.10;;;;;;5083726;28;20066;-81
2021/07/16 04:22:15;;;;;;;29.00;6.82;;;15.80;99.10;;;;;;5082915;28;20371;-82
2021/07/16 04:24:43;;;;;;;31.38;6.45;;;15.80;99.00;;;;;;5065488;28;20045;-81
2021/07/16 04:27:10;;;;;;;34.40;7.10;;;15.80;99.00;;;;;;5066044;28;20043;-82
2021/07/16 04:29:37;;;;;;;26.42;5.90;;;15.80;99.00;;;;;;5089668;28;20039;-81
2021/07/16 04:32:04;;;;;;;26.00;5.60;;;15.80;98.90;;;;;;5072618;28;20107;-82
2021/07/16 04:34:32;;;;;;;36.13;6.55;;;15.80;98.90;;;;;;5085616;28;20037;-80
2021/07/16 04:36:59;;;;;;;32.47;7.05;;;15.80;98.90;;;;;;5087065;28;20028;-81
2021/07/16 04:39:25;;;;;;;31.17;6.75;;;15.80;98.90;;;;;;5073797;28;20478;-81
2021/07/16 04:41:51;;;;;;;28.13;6.95;;;15.80;98.90;;;;;;5086904;28;20036;-81
2021/07/16 04:44:20;;;;;;;32.08;6.75;;;15.80;98.90;;;;;;5072713;28;20037;-81
2021/07/16 04:46:46;;;;;;;30.40;6.70;;;15.80;99.00;;;;;;5077832;28;20040;-80
2021/07/16 04:49:12;;;;;;;31.58;6.53;;;15.90;99.00;;;;;;5082127;28;20038;-81
2021/07/16 04:51:38;;;;;;;32.00;6.50;;;15.80;98.90;;;;;;5091367;28;20482;-81
2021/07/16 04:54:06;;;;;;;30.42;6.07;;;15.90;98.90;;;;;;5086130;28;20039;-81
2021/07/16 04:56:36;;;;;;;26.20;5.95;;;15.90;98.90;;;;;;5068617;28;20036;-81
2021/07/16 04:59:03;;;;;;;33.60;6.55;;;15.80;98.90;;;;;;5086279;28;20078;-81
2021/07/16 05:01:29;;;;;;;32.08;6.20;;;15.90;99.00;;;;;;5070446;28;20095;-81
2021/07/16 05:03:55;;;;;;;32.25;6.45;;;15.90;99.00;;;;;;5079606;28;20244;-81
2021/07/16 05:06:22;;;;;;;38.22;6.38;;;15.90;99.00;;;;;;5076123;28;20546;-81
2021/07/16 05:08:49;;;;;;;28.27;5.93;;;15.90;99.10;;;;;;5082298;28;20047;-82
2021/07/16 05:11:17;;;;;;;32.00;6.55;;;15.90;99.10;;;;;;5080257;28;20106;-81
2021/07/16 05:13:44;;;;;;;28.88;6.13;;;15.90;99.10;;;;;;5085394;28;20115;-81
2021/07/16 05:16:12;;;;;;;34.80;7.07;;;15.90;99.10;;;;;;5047500;28;20119;-82
2021/07/16 05:18:39;;;;;;;38.45;6.95;;;16.00;99.20;;;;;;5097276;28;20057;-82
2021/07/16 05:21:07;;;;;;;40.80;7.35;;;16.00;99.30;;;;;;5109772;28;20031;-82
2021/07/16 05:23:33;;;;;;;34.80;6.68;;;16.00;99.40;;;;;;5087807;28;20048;-82
2021/07/16 05:25:59;;;;;;;38.10;7.28;;;16.00;99.40;;;;;;5071374;28;20625;-82
2021/07/16 05:28:26;;;;;;;43.80;7.85;;;16.00;99.30;;;;;;5072784;28;20040;-82
2021/07/16 05:30:52;;;;;;;29.13;6.53;;;16.00;99.30;;;;;;5071522;28;20036;-82
2021/07/16 05:33:19;;;;;;;36.25;6.53;;;16.00;99.30;;;;;;5087703;28;20036;-81
2021/07/16 05:35:45;;;;;;;34.33;6.53;;;16.00;99.40;;;;;;5073806;28;20058;-81
2021/07/16 05:38:11;;;;;;;36.85;6.78;;;16.00;99.80;;;;;;5094117;28;20111;-81
2021/07/16 05:40:38;;;;;;;35.15;7.15;;;16.10;99.60;;;;;;5086006;28;20056;-82
2021/07/16 05:43:09;;;;;;;38.88;7.85;;;16.10;99.60;;;;;;5077281;28;20459;-82
2021/07/16 05:45:36;;;;;;;34.95;6.80;;;16.10;99.50;;;;;;5093421;28;20119;-82
2021/07/16 05:48:05;;;;;;;28.65;5.85;;;16.10;99.40;;;;;;5076731;28;20035;-83
2021/07/16 05:50:31;;;;;;;40.20;7.15;;;16.10;99.40;;;;;;5077329;28;20060;-83
2021/07/16 05:52:57;;;;;;;29.08;6.97;;;16.10;99.40;;;;;;5061379;28;20040;-82
2021/07/16 05:55:23;;;;;;;42.35;7.40;;;16.10;99.40;;;;;;5073119;28;20036;-82
2021/07/16 05:57:49;;;;;;;40.80;7.53;;;16.10;99.40;;;;;;5067148;28;20055;-83
2021/07/16 06:00:17;;;;;;;39.72;7.45;;;16.10;99.40;;;;;;5070477;28;20043;-83
2021/07/16 06:02:43;;;;;;;40.38;6.90;;;16.20;99.40;;;;;;5080790;28;20035;-82
2021/07/16 06:05:09;;;;;;;39.90;7.72;;;16.20;99.40;;;;;;5096099;28;20115;-82
2021/07/16 06:07:35;;;;;;;35.40;7.07;;;16.20;99.40;;;;;;5070070;28;20102;-82
2021/07/16 06:10:02;;;;;;;39.50;7.28;;;16.20;99.40;;;;;;5074105;28;20032;-83
2021/07/16 06:12:28;;;;;;;37.53;6.97;;;16.20;99.40;;;;;;5082618;28;20553;-82
2021/07/16 06:14:55;;;;;;;47.75;7.50;;;16.30;99.50;;;;;;5073619;28;20503;-82
2021/07/16 06:17:25;;;;;;;45.33;8.43;;;16.40;99.50;;;;;;5078583;28;20032;-82
2021/07/16 06:19:51;;;;;;;39.70;7.63;;;16.40;99.40;;;;;;5075688;28;20036;-82
2021/07/16 06:22:17;;;;;;;49.10;7.15;;;16.40;99.40;;;;;;5077574;28;20050;-82
2021/07/16 06:24:43;;;;;;;36.28;7.60;;;16.50;99.30;;;;;;5059547;28;20047;-82
2021/07/16 06:27:09;;;;;;;43.95;7.78;;;16.50;99.30;;;;;;5093476;28;20089;-83
2021/07/16 06:29:35;;;;;;;40.45;7.15;;;16.50;99.30;;;;;;5087955;28;20130;-83
2021/07/16 06:32:02;;;;;;;38.45;6.55;;;16.50;99.10;;;;;;5092971;28;20489;-82
2021/07/16 06:34:27;;;;;;;40.60;7.43;;;16.50;99.00;;;;;;5091912;28;20039;-82
2021/07/16 06:36:53;;;;;;;35.30;6.53;;;16.50;98.90;;;;;;5074499;28;20037;-82
2021/07/16 06:39:19;;;;;;;42.38;7.40;;;16.50;98.90;;;;;;5064823;28;20112;-83
2021/07/16 06:41:45;;;;;;;35.35;7.00;;;16.50;99.00;;;;;;5068891;28;20040;-82
2021/07/16 06:44:11;;;;;;;49.58;7.35;;;16.60;99.00;;;;;;5079875;28;20020;-83
2021/07/16 06:46:37;;;;;;;38.95;7.63;;;16.60;99.00;;;;;;5075027;28;20146;-82
2021/07/16 06:49:04;;;;;;;37.47;6.85;;;16.60;99.00;;;;;;5057827;28;20050;-81
2021/07/16 06:51:33;;;;;;;38.03;7.40;;;16.60;98.90;;;;;;5077140;28;20044;-82
2021/07/16 06:54:05;;;;;;;31.42;6.88;;;16.60;98.80;;;;;;5051518;28;20107;-81
2021/07/16 06:56:32;;;;;;;38.08;7.57;;;16.60;98.80;;;;;;5088787;28;20040;-82
2021/07/16 06:58:59;;;;;;;35.67;7.20;;;16.60;98.80;;;;;;5088036;28;20031;-82
2021/07/16 07:01:25;;;;;;;39.50;7.07;;;16.60;98.80;;;;;;5091520;28;20028;-82
2021/07/16 07:03:50;;;;;;;36.67;7.22;;;16.60;98.80;;;;;;5091934;28;20505;-82
2021/07/16 07:06:16;;;;;;;45.40;6.70;;;16.60;98.80;;;;;;5069908;28;20233;-82
2021/07/16 07:08:42;;;;;;;33.88;6.60;;;16.60;98.80;;;;;;5068261;28;20044;-82
2021/07/16 07:11:09;;;;;;;36.25;6.88;;;16.60;98.70;;;;;;5077813;28;20027;-82
2021/07/16 07:13:35;;;;;;;41.33;7.40;;;16.60;98.70;;;;;;5094243;28;20036;-82
2021/07/16 07:16:02;;;;;;;38.00;6.53;;;16.60;98.80;;;;;;5087778;28;20046;-82
2021/07/16 07:18:28;;;;;;;41.85;7.97;;;16.60;98.70;;;;;;5057159;28;20040;-81
2021/07/16 07:20:54;;;;;;;45.80;7.22;;;16.60;98.70;;;;;;5073665;28;20028;-83
2021/07/16 07:23:21;;;;;;;39.83;7.20;;;16.70;98.80;;;;;;5073763;28;20110;-81
2021/07/16 07:25:47;;;;;;;38.72;6.63;;;16.70;98.90;;;;;;5060357;28;20109;-82
2021/07/16 07:28:14;;;;;;;34.95;7.28;;;16.80;98.90;;;;;;5059857;28;20040;-82
2021/07/16 07:30:40;;;;;;;42.33;8.18;;;16.80;99.00;;;;;;5075729;28;20800;-82
2021/07/16 07:33:06;;;;;;;35.17;7.05;;;16.80;99.10;;;;;;5059714;28;20040;-82
2021/07/16 07:35:33;;;;;;;44.58;8.02;;;16.80;98.90;;;;;;5073624;28;20062;-83
2021/07/16 07:38:04;;;;;;;43.65;7.00;;;16.80;98.80;;;;;;5076472;28;20030;-83
2021/07/16 07:40:31;;;;;;;36.10;7.00;;;16.90;98.80;;;;;;5093797;28;20032;-82
2021/07/16 07:42:59;;;;;;;37.72;6.10;;;16.90;98.80;;;;;;5073075;28;20040;-82
2021/07/16 07:45:25;;;;;;;40.35;6.80;;;16.90;98.80;;;;;;5093868;28;20498;-83
2021/07/16 07:47:51;;;;;;;34.75;6.32;;;16.90;98.90;;;;;;5054725;28;20036;-82
2021/07/16 07:50:18;;;;;;;46.28;8.75;;;17.00;98.90;;;;;;5091126;28;20512;-83
2021/07/16 07:52:46;;;;;;;41.15;7.78;;;17.00;98.70;;;;;;5086460;28;20035;-83
2021/07/16 07:55:14;;;;;;;34.40;6.93;;;17.00;98.70;;;;;;5069963;28;20498;-83
2021/07/16 07:57:40;;;;;;;39.70;7.03;;;17.00;98.70;;;;;;5090840;28;20058;-83
2021/07/16 08:00:10;;;;;;;40.67;7.30;;;17.00;98.60;;;;;;5092883;28;20046;-83
2021/07/16 08:02:36;;;;;;;45.40;7.93;;;17.00;98.60;;;;;;5090751;28;20047;-83
2021/07/16 08:05:02;;;;;;;41.75;6.90;;;17.10;98.50;;;;;;5073076;28;20445;-82
2021/07/16 08:07:28;;;;;;;42.95;7.10;;;17.10;98.50;;;;;;5089063;28;20235;-83
2021/07/16 08:09:54;;;;;;;31.15;6.75;;;17.10;98.50;;;;;;5057747;28;20036;-83
2021/07/16 08:12:20;;;;;;;41.70;6.32;;;17.10;98.60;;;;;;5057906;28;20028;-83
2021/07/16 08:14:46;;;;;;;29.65;5.80;;;17.10;98.50;;;;;;5072688;28;20075;-83
2021/07/16 08:17:12;;;;;;;32.97;6.43;;;17.10;98.40;;;;;;5071758;28;20036;-83
2021/07/16 08:19:38;;;;;;;39.28;6.65;;;17.10;98.20;;;;;;5085827;28;20063;-83
2021/07/16 08:22:04;;;;;;;39.72;6.13;;;17.10;98.10;;;;;;5090295;28;20386;-83
2021/07/16 08:24:30;;;;;;;36.65;6.35;;;17.10;98.10;;;;;;5085727;28;20036;-82
2021/07/16 08:26:56;;;;;;;38.28;5.75;;;17.10;98.20;;;;;;5053109;28;20177;-83
2021/07/16 08:29:22;;;;;;;40.33;6.03;;;17.20;98.10;;;;;;5074643;28;20032;-83
2021/07/16 08:31:47;;;;;;;36.42;6.40;;;17.20;97.90;;;;;;5086466;28;20028;-83
2021/07/16 08:34:17;;;;;;;42.92;7.38;;;17.20;97.90;;;;;;5052582;28;20055;-83
2021/07/16 08:36:44;;;;;;;40.67;7.43;;;17.20;97.80;;;;;;5092113;28;20024;-82
2021/07/16 08:39:10;;;;;;;29.67;6.28;;;17.20;97.80;;;;;;5082771;28;20059;-82
2021/07/16 08:41:36;;;;;;;35.15;7.07;;;17.30;97.90;;;;;;5073497;28;20036;-83
2021/07/16 08:44:03;;;;;;;33.92;6.28;;;17.20;97.90;;;;;;5064181;28;20458;-83
2021/07/16 08:46:29;;;;;;;41.30;6.90;;;17.30;97.90;;;;;;5082164;28;20047;-83
2021/07/16 08:48:58;;;;;;;29.02;5.93;;;17.30;97.90;;;;;;5071976;28;20027;-82
2021/07/16 08:51:25;;;;;;;37.90;6.70;;;17.30;97.80;;;;;;5083920;28;20038;-83
2021/07/16 08:53:55;;;;;;;39.40;6.75;;;17.30;97.60;;;;;;5092205;28;20402;-83
2021/07/16 08:56:22;;;;;;;35.67;6.78;;;17.30;97.50;;;;;;5081573;28;20048;-83
2021/07/16 08:58:48;;;;;;;39.55;7.45;;;17.40;97.70;;;;;;5068954;28;20032;-83
2021/07/16 09:01:14;;;;;;;34.88;6.82;;;17.40;97.50;;;;;;5071130;28;20040;-83
2021/07/16 09:04:00;;;;;;;41.00;7.47;;;17.40;97.50;;;;;;5066958;28;20032;-82
2021/07/16 09:06:52;;;;;;;37.97;7.10;;;17.50;97.60;;;;;;5077740;28;20033;-83
2021/07/16 09:09:20;;;;;;;40.53;6.63;;;17.50;97.40;;;;;;5081073;28;20047;-82
2021/07/16 09:11:52;;;;;;;39.05;7.40;;;17.50;97.30;;;;;;5089388;28;20040;-83
2021/07/16 09:14:27;;;;;;;34.63;6.82;;;17.50;97.30;;;;;;5082332;28;20032;-83
2021/07/16 09:17:09;;;;;;;37.97;7.18;;;17.50;97.30;;;;;;5084861;28;20065;-82
2021/07/16 09:19:52;;;;;;;40.65;7.80;;;17.50;97.20;;;;;;5087778;28;20036;-83
2021/07/16 09:22:25;;;;;;;41.72;7.50;;;17.60;97.30;;;;;;5090875;28;20043;-83
2021/07/16 09:25:00;;;;;;;41.13;8.23;;;17.60;97.40;;;;;;5093160;28;20163;-84
2021/07/16 09:27:44;;;;;;;33.67;7.88;;;17.60;97.20;;;;;;5108641;28;20040;-83
2021/07/16 09:30:21;;;;;;;40.53;7.22;;;17.70;97.10;;;;;;5053520;28;20512;-82
2021/07/16 09:32:52;;;;;;;42.25;7.75;;;17.80;97.10;;;;;;5081818;28;20062;-83
2021/07/16 09:35:24;;;;;;;33.45;6.57;;;17.90;97.10;;;;;;5087648;28;20394;-82
2021/07/16 09:38:05;;;;;;;41.90;7.20;;;17.90;96.90;;;;;;5077520;28;20067;-83
2021/07/16 09:40:38;;;;;;;36.30;7.07;;;18.00;96.60;;;;;;5090990;28;20044;-82
2021/07/16 09:43:08;;;;;;;40.08;7.53;;;18.00;96.50;;;;;;5092109;28;20028;-83
2021/07/16 09:45:36;;;;;;;40.97;7.28;;;18.00;96.40;;;;;;5090755;28;20032;-82
2021/07/16 09:48:20;;;;;;;35.30;6.50;;;18.00;96.50;;;;;;5062716;28;20058;-82
2021/07/16 09:50:46;;;;;;;36.70;7.78;;;18.00;96.40;;;;;;5078642;28;20035;-83
2021/07/16 09:53:26;;;;;;;40.20;7.47;;;17.90;96.40;;;;;;5086750;28;20040;-83
2021/07/16 09:56:18;;;;;;;35.20;6.90;;;17.80;96.40;;;;;;5088121;28;20036;-83
2021/07/16 09:58:45;;;;;;;37.40;6.80;;;17.80;96.40;;;;;;5084079;28;20032;-83
2021/07/16 10:01:11;;;;;;;36.58;7.70;;;17.80;96.50;;;;;;5084341;28;20078;-83
2021/07/16 10:03:38;;;;;;;37.42;6.97;;;17.80;96.60;;;;;;5070986;28;20028;-83
2021/07/16 10:06:04;;;;;;;38.58;7.72;;;17.80;96.60;;;;;;5087363;28;20132;-83
2021/07/16 10:08:34;;;;;;;38.38;7.22;;;17.80;96.50;;;;;;5080898;28;20063;-82
2021/07/16 10:11:05;;;;;;;33.80;7.10;;;17.90;96.60;;;;;;5064518;28;20037;-82
2021/07/16 10:13:34;;;;;;;34.03;7.43;;;17.90;96.70;;;;;;5077109;28;20458;-83
2021/07/16 10:16:01;;;;;;;37.38;7.65;;;17.90;96.70;;;;;;5078948;28;20044;-83
2021/07/16 10:18:28;;;;;;;38.92;7.40;;;18.00;96.50;;;;;;5083318;28;21412;-83
2021/07/16 10:20:55;;;;;;;35.20;6.80;;;18.00;96.40;;;;;;5078693;28;20111;-83
2021/07/16 10:23:22;;;;;;;34.80;7.32;;;18.00;96.40;;;;;;5082701;28;20033;-82
2021/07/16 10:25:49;;;;;;;33.90;6.88;;;18.10;96.30;;;;;;5091034;28;20147;-83
2021/07/16 10:28:44;;;;;;;34.17;7.05;;;18.10;96.20;;;;;;5082371;28;20068;-82
2021/07/16 10:31:37;;;;;;;40.00;7.43;;;18.20;96.40;;;;;;5084103;28;20320;-83
2021/07/16 10:34:27;;;;;;;39.55;7.35;;;18.30;96.40;;;;;;5086682;28;20027;-82
2021/07/16 10:36:57;;;;;;;42.70;7.82;;;18.30;96.40;;;;;;5083219;28;20036;-82
2021/07/16 10:39:42;;;;;;;34.92;7.75;;;18.40;96.30;;;;;;5072340;28;20582;-81
2021/07/16 10:42:27;;;;;;;31.40;7.30;;;18.50;96.50;;;;;;5076928;28;20040;-81
2021/07/16 10:44:57;;;;;;;32.90;7.18;;;18.50;96.60;;;;;;5076159;28;20250;-82
2021/07/16 10:47:37;;;;;;;33.83;7.13;;;18.50;96.40;;;;;;5075287;28;20033;-82
2021/07/16 10:50:07;;;;;;;38.25;7.78;;;18.50;96.20;;;;;;5088813;28;20040;-83
2021/07/16 10:52:47;;;;;;;45.67;7.97;;;18.60;96.20;;;;;;5090182;28;20092;-82
2021/07/16 10:55:18;;;;;;;44.10;8.55;;;18.60;95.90;;;;;;5084240;28;20048;-82
2021/07/16 10:57:48;;;;;;;38.08;7.40;;;18.70;95.90;;;;;;5079985;28;20497;-82
2021/07/16 11:00:36;;;;;;;38.70;8.10;;;18.70;95.90;;;;;;5072209;28;20020;-83
2021/07/16 11:03:10;;;;;;;36.65;7.63;;;18.70;95.60;;;;;;5084279;28;20051;-83
2021/07/16 11:05:36;;;;;;;36.75;8.35;;;18.70;95.40;;;;;;5082100;28;20048;-84
2021/07/16 11:08:06;;;;;;;41.17;8.25;;;18.70;95.40;;;;;;5083660;28;20040;-82
2021/07/16 11:10:54;;;;;;;32.05;6.63;;;18.60;95.60;;;;;;5070631;28;20113;-82
2021/07/16 11:13:39;;;;;;;39.38;7.40;;;18.70;95.70;;;;;;5085860;28;20390;-83
2021/07/16 11:19:12;;;;;;;31.67;7.18;;;18.70;95.30;;;;;;5081784;28;20489;-83
2021/07/16 11:21:46;;;;;;;33.45;7.28;;;18.70;95.10;;;;;;5088044;28;20040;-83
2021/07/16 11:24:30;;;;;;;34.38;7.30;;;18.60;95.10;;;;;;5075737;28;20492;-83
2021/07/16 11:26:59;;;;;;;38.65;8.65;;;18.70;94.90;;;;;;5081825;28;20058;-83
2021/07/16 11:29:46;;;;;;;47.03;10.63;;;18.60;95.20;;;;;;5083399;28;20067;-83
2021/07/16 11:32:20;;;;;;;33.60;7.97;;;18.70;95.40;;;;;;5075108;28;20032;-83
2021/07/16 11:35:06;;;;;;;32.40;7.30;;;18.80;95.30;;;;;;5079424;28;20036;-83
2021/07/16 11:37:44;;;;;;;30.33;7.65;;;18.90;95.70;;;;;;5087259;28;20040;-83
2021/07/16 11:40:16;;;;;;;32.38;7.72;;;18.90;95.20;;;;;;5082090;28;20225;-83
2021/07/16 11:43:02;;;;;;;39.38;8.68;;;19.00;95.20;;;;;;5087149;28;20032;-83
2021/07/16 11:45:31;;;;;;;29.67;7.68;;;19.00;95.10;;;;;;5079586;28;20040;-83
2021/07/16 11:48:11;;;;;;;33.15;7.97;;;19.00;95.20;;;;;;5082632;28;20032;-84
2021/07/16 11:50:36;;;;;;;36.15;7.88;;;19.00;94.90;;;;;;5050637;28;20040;-84
2021/07/16 11:53:02;;;;;;;30.73;7.57;;;19.00;94.60;;;;;;5088254;28;20033;-83
2021/07/16 11:55:29;;;;;;;32.17;8.00;;;19.00;94.70;;;;;;5072366;28;20043;-84
2021/07/16 11:58:00;;;;;;;39.28;8.02;;;18.90;94.70;;;;;;5072689;28;20459;-82
2021/07/16 12:00:33;;;;;;;38.55;8.48;;;18.90;94.70;;;;;;5086029;28;20032;-82
2021/07/16 12:02:59;;;;;;;;;;;18.90;94.80;;;;;;5085143;28;20254;-82
2021/07/16 12:05:25;;;;;;;34.05;7.25;;;18.90;95.10;;;;;;5081707;28;19920;-81
2021/07/16 12:07:51;;;;;;;29.20;7.88;;;18.90;95.00;;;;;;5078870;28;20043;-81
2021/07/16 12:10:19;;;;;;;46.13;8.80;;;18.90;95.30;;;;;;5054245;28;20032;-82
2021/07/16 12:12:46;;;;;;;31.77;7.47;;;19.00;95.40;;;;;;5076619;28;20036;-82
2021/07/16 12:15:18;;;;;;;34.90;8.23;;;19.00;95.10;;;;;;5056135;28;20040;-82
2021/07/16 12:17:52;;;;;;;;;;;19.00;94.90;;;;;;5091636;28;20089;-82
2021/07/16 12:20:20;;;;;;;38.67;9.18;;;19.00;95.00;;;;;;5082582;28;19962;-81
2021/07/16 12:22:47;;;;;;;38.13;8.18;;;19.10;95.00;;;;;;5073162;28;20043;-82
2021/07/16 12:25:14;;;;;;;32.38;8.07;;;19.10;94.90;;;;;;5088236;28;20053;-82
2021/07/16 12:27:41;;;;;;;38.63;8.80;;;19.10;95.00;;;;;;5086156;28;20032;-82
2021/07/16 12:30:12;;;;;;;38.67;8.27;;;19.10;95.00;;;;;;5076359;28;20028;-82
2021/07/16 12:32:43;;;;;;;41.28;8.65;;;19.10;95.00;;;;;;5064402;28;20032;-83
2021/07/16 12:35:20;;;;;;;47.53;8.93;;;19.20;94.60;;;;;;5078163;28;20483;-82
2021/07/16 12:37:48;;;;;;;39.00;8.05;;;19.20;94.60;;;;;;5089080;28;20040;-82
2021/07/16 12:40:22;;;;;;;30.90;8.38;;;19.20;94.40;;;;;;5070404;28;20047;-82
2021/07/16 12:43:06;;;;;;;34.85;8.45;;;19.20;94.60;;;;;;5061415;28;20143;-82
2021/07/16 12:45:42;;;;;;;29.55;7.82;;;19.20;94.30;;;;;;5074796;28;20128;-82
2021/07/16 12:48:10;;;;;;;34.38;8.32;;;19.20;94.20;;;;;;5085831;28;20028;-84
2021/07/16 12:50:37;;;;;;;37.88;8.50;;;19.10;94.00;;;;;;5070466;28;20066;-82